sensor_id;sensor_type;location;lat;lon;timestamp;pressure;altitude;pressure_sealevel;temperature;humidity
34081;BME280;20358;50.272;19.026;2024-03-08T00:02:18;98866.09;;;5.47;54.57
34081;BME280;20358;50.272;19.026;2024-03-08T00:05:24;98858.25;;;5.52;54.35
34081;BME280;20358;50.272;19.026;2024-03-08T00:08:33;98855.59;;;5.53;54.26
34081;BME280;20358;50.272;19.026;2024-03-08T00:11:40;98862.47;;;5.56;54.17
34081;BME280;20358;50.272;19.026;2024-03-08T00:14:46;98863.28;;;5.58;53.86
34081;BME280;20358;50.272;19.026;2024-03-08T00:17:53;98866.72;;;5.58;53.95
34081;BME280;20358;50.272;19.026;2024-03-08T00:20:59;98860.63;;;5.62;53.84
34081;BME280;20358;50.272;19.026;2024-03-08T00:24:08;98854.56;;;5.62;53.84
34081;BME280;20358;50.272;19.026;2024-03-08T00:27:14;98852.00;;;5.60;53.73
34081;BME280;20358;50.272;19.026;2024-03-08T00:30:24;98861.56;;;5.58;53.79
34081;BME280;20358;50.272;19.026;2024-03-08T00:33:30;98850.31;;;5.59;53.76
34081;BME280;20358;50.272;19.026;2024-03-08T00:36:37;98845.06;;;5.62;53.61
34081;BME280;20358;50.272;19.026;2024-03-08T00:39:45;98842.47;;;5.61;53.51
34081;BME280;20358;50.272;19.026;2024-03-08T00:42:53;98847.72;;;5.59;53.62
34081;BME280;20358;50.272;19.026;2024-03-08T00:45:59;98848.63;;;5.55;53.75
34081;BME280;20358;50.272;19.026;2024-03-08T00:49:06;98846.97;;;5.54;53.78
34081;BME280;20358;50.272;19.026;2024-03-08T00:52:11;98841.78;;;5.53;53.85
34081;BME280;20358;50.272;19.026;2024-03-08T00:55:21;98835.78;;;5.51;53.66
34081;BME280;20358;50.272;19.026;2024-03-08T00:58:27;98838.41;;;5.49;53.64
34081;BME280;20358;50.272;19.026;2024-03-08T01:01:34;98833.28;;;5.46;53.58
34081;BME280;20358;50.272;19.026;2024-03-08T01:04:40;98828.16;;;5.43;53.98
34081;BME280;20358;50.272;19.026;2024-03-08T01:07:47;98826.44;;;5.42;54.04
34081;BME280;20358;50.272;19.026;2024-03-08T01:10:55;98827.41;;;5.38;53.81
34081;BME280;20358;50.272;19.026;2024-03-08T01:14:02;98826.72;;;5.30;54.16
34081;BME280;20358;50.272;19.026;2024-03-08T01:17:09;98824.94;;;5.32;54.45
34081;BME280;20358;50.272;19.026;2024-03-08T01:20:16;98819.75;;;5.32;54.26
34081;BME280;20358;50.272;19.026;2024-03-08T01:23:23;98817.31;;;5.26;54.29
34081;BME280;20358;50.272;19.026;2024-03-08T01:26:32;98818.28;;;5.19;54.54
34081;BME280;20358;50.272;19.026;2024-03-08T01:29:39;98819.97;;;5.22;54.70
34081;BME280;20358;50.272;19.026;2024-03-08T01:32:46;98812.25;;;5.20;54.36
34081;BME280;20358;50.272;19.026;2024-03-08T01:35:52;98805.41;;;5.16;54.46
34081;BME280;20358;50.272;19.026;2024-03-08T01:39:00;98805.47;;;5.13;54.54
34081;BME280;20358;50.272;19.026;2024-03-08T01:42:13;98803.00;;;5.07;54.66
34081;BME280;20358;50.272;19.026;2024-03-08T01:45:21;98792.75;;;5.01;54.70
34081;BME280;20358;50.272;19.026;2024-03-08T01:48:27;98791.13;;;4.97;54.62
34081;BME280;20358;50.272;19.026;2024-03-08T01:51:35;98782.63;;;4.89;55.04
34081;BME280;20358;50.272;19.026;2024-03-08T01:54:41;98797.41;;;4.84;55.11
34081;BME280;20358;50.272;19.026;2024-03-08T01:57:51;98796.66;;;4.79;55.33
34081;BME280;20358;50.272;19.026;2024-03-08T02:00:57;98786.34;;;4.76;55.32
34081;BME280;20358;50.272;19.026;2024-03-08T02:04:08;98790.75;;;4.71;55.36
34081;BME280;20358;50.272;19.026;2024-03-08T02:07:14;98802.00;;;4.70;55.52
34081;BME280;20358;50.272;19.026;2024-03-08T02:10:21;98785.63;;;4.68;55.73
34081;BME280;20358;50.272;19.026;2024-03-08T02:13:30;98791.78;;;4.64;55.73
34081;BME280;20358;50.272;19.026;2024-03-08T02:16:37;98785.72;;;4.63;55.87
34081;BME280;20358;50.272;19.026;2024-03-08T02:19:43;98791.78;;;4.64;55.74
34081;BME280;20358;50.272;19.026;2024-03-08T02:22:53;98785.69;;;4.65;55.69
34081;BME280;20358;50.272;19.026;2024-03-08T02:26:00;98789.19;;;4.64;55.65
34081;BME280;20358;50.272;19.026;2024-03-08T02:29:07;98779.75;;;4.60;55.67
34081;BME280;20358;50.272;19.026;2024-03-08T02:32:14;98784.06;;;4.59;55.79
34081;BME280;20358;50.272;19.026;2024-03-08T02:35:20;98769.53;;;4.54;55.83
34081;BME280;20358;50.272;19.026;2024-03-08T02:38:29;98779.78;;;4.58;55.67
34081;BME280;20358;50.272;19.026;2024-03-08T02:41:35;98770.28;;;4.57;55.62
34081;BME280;20358;50.272;19.026;2024-03-08T02:44:42;98772.13;;;4.52;55.66
34081;BME280;20358;50.272;19.026;2024-03-08T02:47:49;98778.22;;;4.50;55.84
34081;BME280;20358;50.272;19.026;2024-03-08T02:50:56;98767.91;;;4.47;55.81
34081;BME280;20358;50.272;19.026;2024-03-08T02:54:05;98770.63;;;4.39;55.73
34081;BME280;20358;50.272;19.026;2024-03-08T02:57:13;98769.84;;;4.35;55.97
34081;BME280;20358;50.272;19.026;2024-03-08T03:00:20;98745.22;;;4.13;56.10
34081;BME280;20358;50.272;19.026;2024-03-08T03:03:27;98764.88;;;4.23;56.36
34081;BME280;20358;50.272;19.026;2024-03-08T03:06:33;98768.38;;;4.22;56.39
34081;BME280;20358;50.272;19.026;2024-03-08T03:09:43;98766.59;;;4.24;56.47
34081;BME280;20358;50.272;19.026;2024-03-08T03:12:49;98767.31;;;4.32;56.29
34081;BME280;20358;50.272;19.026;2024-03-08T03:15:56;98772.34;;;4.38;56.00
34081;BME280;20358;50.272;19.026;2024-03-08T03:19:02;98768.13;;;4.34;55.83
34081;BME280;20358;50.272;19.026;2024-03-08T03:22:09;98766.53;;;4.27;55.95
34081;BME280;20358;50.272;19.026;2024-03-08T03:25:18;98765.72;;;4.24;56.12
34081;BME280;20358;50.272;19.026;2024-03-08T03:28:28;98771.78;;;4.24;56.38
34081;BME280;20358;50.272;19.026;2024-03-08T03:31:35;98765.69;;;4.25;56.08
34081;BME280;20358;50.272;19.026;2024-03-08T03:34:43;98770.00;;;4.26;56.16
34081;BME280;20358;50.272;19.026;2024-03-08T03:37:49;98775.19;;;4.26;55.90
34081;BME280;20358;50.272;19.026;2024-03-08T03:41:07;98768.28;;;4.25;56.01
34081;BME280;20358;50.272;19.026;2024-03-08T03:44:17;98764.81;;;4.26;55.91
34081;BME280;20358;50.272;19.026;2024-03-08T03:47:23;98764.72;;;4.31;55.82
34081;BME280;20358;50.272;19.026;2024-03-08T03:50:29;98760.41;;;4.31;55.79
34081;BME280;20358;50.272;19.026;2024-03-08T03:53:39;98756.19;;;4.27;55.63
34081;BME280;20358;50.272;19.026;2024-03-08T03:56:47;98759.66;;;4.26;55.64
34081;BME280;20358;50.272;19.026;2024-03-08T03:59:56;98761.41;;;4.24;55.64
34081;BME280;20358;50.272;19.026;2024-03-08T04:03:03;98762.28;;;4.23;55.96
34081;BME280;20358;50.272;19.026;2024-03-08T04:06:11;98757.94;;;4.25;55.68
34081;BME280;20358;50.272;19.026;2024-03-08T04:09:17;98754.44;;;4.29;55.72
34081;BME280;20358;50.272;19.026;2024-03-08T04:12:28;98747.44;;;4.34;55.88
34081;BME280;20358;50.272;19.026;2024-03-08T04:15:34;98743.16;;;4.32;55.96
34081;BME280;20358;50.272;19.026;2024-03-08T04:18:41;98751.78;;;4.32;55.62
34081;BME280;20358;50.272;19.026;2024-03-08T04:21:48;98754.38;;;4.32;55.78
34081;BME280;20358;50.272;19.026;2024-03-08T04:24:54;98756.06;;;4.33;55.88
34081;BME280;20358;50.272;19.026;2024-03-08T04:28:03;98755.09;;;4.41;55.59
34081;BME280;20358;50.272;19.026;2024-03-08T04:31:10;98742.97;;;4.41;55.58
34081;BME280;20358;50.272;19.026;2024-03-08T04:34:18;98752.50;;;4.41;55.76
34081;BME280;20358;50.272;19.026;2024-03-08T04:37:24;98747.16;;;4.50;55.66
34081;BME280;20358;50.272;19.026;2024-03-08T04:40:32;98744.50;;;4.53;55.42
34081;BME280;20358;50.272;19.026;2024-03-08T04:43:41;98745.25;;;4.58;55.50
34081;BME280;20358;50.272;19.026;2024-03-08T04:46:47;98750.41;;;4.61;55.40
34081;BME280;20358;50.272;19.026;2024-03-08T04:49:54;98747.75;;;4.64;55.11
34081;BME280;20358;50.272;19.026;2024-03-08T04:53:00;98743.44;;;4.64;55.53
34081;BME280;20358;50.272;19.026;2024-03-08T04:56:11;98745.94;;;4.67;55.36
34081;BME280;20358;50.272;19.026;2024-03-08T04:59:20;98746.78;;;4.68;55.46
34081;BME280;20358;50.272;19.026;2024-03-08T05:02:27;98751.03;;;4.72;55.30
34081;BME280;20358;50.272;19.026;2024-03-08T05:05:33;98757.00;;;4.77;55.46
34081;BME280;20358;50.272;19.026;2024-03-08T05:08:39;98755.16;;;4.82;55.56
34081;BME280;20358;50.272;19.026;2024-03-08T05:11:46;98752.31;;;4.94;55.50
34081;BME280;20358;50.272;19.026;2024-03-08T05:14:56;98748.69;;;5.03;55.55
34081;BME280;20358;50.272;19.026;2024-03-08T05:18:03;98684.47;;;4.77;55.52
34081;BME280;20358;50.272;19.026;2024-03-08T05:21:10;98755.91;;;5.28;55.17
34081;BME280;20358;50.272;19.026;2024-03-08T05:24:16;98752.28;;;5.35;55.23
34081;BME280;20358;50.272;19.026;2024-03-08T05:27:23;98750.31;;;5.46;54.91
34081;BME280;20358;50.272;19.026;2024-03-08T05:30:33;98760.47;;;5.55;54.60
34081;BME280;20358;50.272;19.026;2024-03-08T05:33:40;98758.50;;;5.67;54.23
34081;BME280;20358;50.272;19.026;2024-03-08T05:36:46;98763.47;;;5.76;54.40
34081;BME280;20358;50.272;19.026;2024-03-08T05:39:54;98759.81;;;5.86;53.80
34081;BME280;20358;50.272;19.026;2024-03-08T05:43:00;98763.09;;;5.94;53.42
34081;BME280;20358;50.272;19.026;2024-03-08T05:46:10;98770.63;;;6.03;53.20
34081;BME280;20358;50.272;19.026;2024-03-08T05:49:16;98766.97;;;6.11;53.28
34081;BME280;20358;50.272;19.026;2024-03-08T05:52:22;98764.94;;;6.22;53.08
34081;BME280;20358;50.272;19.026;2024-03-08T05:55:28;98771.69;;;6.30;52.24
34081;BME280;20358;50.272;19.026;2024-03-08T05:58:38;98770.91;;;6.26;51.88
34081;BME280;20358;50.272;19.026;2024-03-08T06:01:46;98765.72;;;6.26;51.69
34081;BME280;20358;50.272;19.026;2024-03-08T06:04:53;98774.41;;;6.25;51.83
34081;BME280;20358;50.272;19.026;2024-03-08T06:07:59;98769.28;;;6.22;51.25
34081;BME280;20358;50.272;19.026;2024-03-08T06:11:05;98774.56;;;6.19;51.63
34081;BME280;20358;50.272;19.026;2024-03-08T06:14:11;98781.28;;;6.28;51.51
34081;BME280;20358;50.272;19.026;2024-03-08T06:17:24;98766.44;;;6.33;51.60
34081;BME280;20358;50.272;19.026;2024-03-08T06:20:30;98766.31;;;6.37;51.49
34081;BME280;20358;50.272;19.026;2024-03-08T06:23:37;98769.56;;;6.45;51.33
34081;BME280;20358;50.272;19.026;2024-03-08T06:26:43;98775.41;;;6.53;51.36
34081;BME280;20358;50.272;19.026;2024-03-08T06:29:50;98771.66;;;6.63;50.95
34081;BME280;20358;50.272;19.026;2024-03-08T06:32:58;98770.66;;;6.69;50.92
34081;BME280;20358;50.272;19.026;2024-03-08T06:36:05;98775.66;;;6.75;50.84
34081;BME280;20358;50.272;19.026;2024-03-08T06:39:11;98775.38;;;6.85;50.54
34081;BME280;20358;50.272;19.026;2024-03-08T06:42:18;98772.53;;;6.95;50.37
34081;BME280;20358;50.272;19.026;2024-03-08T06:45:24;98763.66;;;7.02;50.02
34081;BME280;20358;50.272;19.026;2024-03-08T06:48:34;98764.38;;;7.07;50.11
34081;BME280;20358;50.272;19.026;2024-03-08T06:51:40;98764.16;;;7.14;50.17
34081;BME280;20358;50.272;19.026;2024-03-08T06:54:47;98761.72;;;7.10;49.22
34081;BME280;20358;50.272;19.026;2024-03-08T06:57:54;98762.50;;;7.12;49.41
34081;BME280;20358;50.272;19.026;2024-03-08T07:01:01;98763.38;;;7.12;49.65
34081;BME280;20358;50.272;19.026;2024-03-08T07:04:13;98764.88;;;7.19;49.76
34081;BME280;20358;50.272;19.026;2024-03-08T07:07:20;98757.78;;;7.26;49.28
34081;BME280;20358;50.272;19.026;2024-03-08T07:10:25;98758.47;;;7.31;49.17
34081;BME280;20358;50.272;19.026;2024-03-08T07:13:32;98756.44;;;7.40;49.54
34081;BME280;20358;50.272;19.026;2024-03-08T07:16:38;98755.13;;;7.55;49.46
34081;BME280;20358;50.272;19.026;2024-03-08T07:19:48;98758.44;;;7.60;48.55
34081;BME280;20358;50.272;19.026;2024-03-08T07:22:54;98765.34;;;7.61;48.56
34081;BME280;20358;50.272;19.026;2024-03-08T07:26:01;98760.06;;;7.64;48.27
34081;BME280;20358;50.272;19.026;2024-03-08T07:29:07;98765.25;;;7.64;48.18
34081;BME280;20358;50.272;19.026;2024-03-08T07:32:14;98758.25;;;7.66;48.33
34081;BME280;20358;50.272;19.026;2024-03-08T07:35:26;98767.06;;;7.62;48.09
34081;BME280;20358;50.272;19.026;2024-03-08T07:38:32;98756.53;;;7.65;48.10
34081;BME280;20358;50.272;19.026;2024-03-08T07:41:39;98767.63;;;7.72;48.62
34081;BME280;20358;50.272;19.026;2024-03-08T07:44:46;98769.81;;;7.85;48.64
34081;BME280;20358;50.272;19.026;2024-03-08T07:47:52;98764.28;;;7.94;48.19
34081;BME280;20358;50.272;19.026;2024-03-08T07:51:02;98778.22;;;7.93;47.65
34081;BME280;20358;50.272;19.026;2024-03-08T07:54:10;98768.63;;;7.95;48.40
34081;BME280;20358;50.272;19.026;2024-03-08T07:57:17;98776.50;;;7.92;47.36
34081;BME280;20358;50.272;19.026;2024-03-08T08:00:23;98785.22;;;7.91;47.82
34081;BME280;20358;50.272;19.026;2024-03-08T08:03:30;98779.25;;;7.88;47.83
34081;BME280;20358;50.272;19.026;2024-03-08T08:06:40;98773.13;;;7.90;47.95
34081;BME280;20358;50.272;19.026;2024-03-08T08:09:47;98773.03;;;7.93;47.65
34081;BME280;20358;50.272;19.026;2024-03-08T08:12:52;98776.50;;;7.92;47.58
34081;BME280;20358;50.272;19.026;2024-03-08T08:16:04;98778.31;;;7.90;47.52
34081;BME280;20358;50.272;19.026;2024-03-08T08:19:11;98776.50;;;7.92;47.73
34081;BME280;20358;50.272;19.026;2024-03-08T08:22:20;98772.06;;;7.96;47.71
34081;BME280;20358;50.272;19.026;2024-03-08T08:25:26;98779.81;;;7.97;47.42
34081;BME280;20358;50.272;19.026;2024-03-08T08:28:33;98779.72;;;8.00;47.77
34081;BME280;20358;50.272;19.026;2024-03-08T08:31:39;98772.53;;;8.08;47.77
34081;BME280;20358;50.272;19.026;2024-03-08T08:34:45;98779.13;;;8.19;47.11
34081;BME280;20358;50.272;19.026;2024-03-08T08:37:54;98768.03;;;8.12;47.13
34081;BME280;20358;50.272;19.026;2024-03-08T08:41:04;98757.19;;;7.99;46.74
34081;BME280;20358;50.272;19.026;2024-03-08T08:44:10;98775.16;;;8.07;47.04
34081;BME280;20358;50.272;19.026;2024-03-08T08:47:19;98772.63;;;8.05;46.83
34081;BME280;20358;50.272;19.026;2024-03-08T08:50:26;98780.19;;;8.13;46.88
34081;BME280;20358;50.272;19.026;2024-03-08T08:53:35;98781.47;;;8.26;46.88
34081;BME280;20358;50.272;19.026;2024-03-08T08:56:42;98778.88;;;8.26;46.11
34081;BME280;20358;50.272;19.026;2024-03-08T08:59:50;98767.00;;;8.18;46.01
34081;BME280;20358;50.272;19.026;2024-03-08T09:02:56;98777.06;;;8.30;46.73
34081;BME280;20358;50.272;19.026;2024-03-08T09:06:06;98780.56;;;8.29;45.68
34081;BME280;20358;50.272;19.026;2024-03-08T09:09:15;98778.72;;;8.32;46.39
34081;BME280;20358;50.272;19.026;2024-03-08T09:12:23;98760.22;;;8.40;45.95
34081;BME280;20358;50.272;19.026;2024-03-08T09:15:28;98765.91;;;8.51;45.39
34081;BME280;20358;50.272;19.026;2024-03-08T09:18:35;98762.41;;;8.52;45.35
34081;BME280;20358;50.272;19.026;2024-03-08T09:21:41;98760.16;;;8.41;45.29
34081;BME280;20358;50.272;19.026;2024-03-08T09:24:50;98753.69;;;8.53;45.46
34081;BME280;20358;50.272;19.026;2024-03-08T09:27:57;98753.88;;;8.71;45.93
34081;BME280;20358;50.272;19.026;2024-03-08T09:31:04;98756.00;;;8.85;45.50
34081;BME280;20358;50.272;19.026;2024-03-08T09:34:11;98757.16;;;9.01;45.28
34081;BME280;20358;50.272;19.026;2024-03-08T09:37:27;98745.38;;;9.14;44.80
34081;BME280;20358;50.272;19.026;2024-03-08T09:40:36;98745.97;;;9.21;44.51
34081;BME280;20358;50.272;19.026;2024-03-08T09:43:43;98752.63;;;9.29;44.00
34081;BME280;20358;50.272;19.026;2024-03-08T09:46:51;98749.00;;;9.33;43.82
34081;BME280;20358;50.272;19.026;2024-03-08T09:49:57;98742.53;;;9.44;44.03
34081;BME280;20358;50.272;19.026;2024-03-08T09:53:05;98732.63;;;9.52;43.94
34081;BME280;20358;50.272;19.026;2024-03-08T09:56:14;98743.06;;;9.73;43.84
34081;BME280;20358;50.272;19.026;2024-03-08T09:59:21;98734.94;;;9.81;42.96
34081;BME280;20358;50.272;19.026;2024-03-08T10:02:39;98738.81;;;9.71;42.71
34081;BME280;20358;50.272;19.026;2024-03-08T10:05:46;98740.06;;;9.62;43.19
34081;BME280;20358;50.272;19.026;2024-03-08T10:08:52;98735.78;;;9.60;43.10
34081;BME280;20358;50.272;19.026;2024-03-08T10:12:02;98724.91;;;9.49;43.21
34081;BME280;20358;50.272;19.026;2024-03-08T10:15:10;98729.81;;;9.34;43.40
34081;BME280;20358;50.272;19.026;2024-03-08T10:18:22;98732.31;;;9.14;43.66
34081;BME280;20358;50.272;19.026;2024-03-08T10:21:28;98730.31;;;8.98;43.85
34081;BME280;20358;50.272;19.026;2024-03-08T10:24:35;98733.47;;;8.84;44.23
34081;BME280;20358;50.272;19.026;2024-03-08T10:27:45;98738.41;;;8.67;44.56
34081;BME280;20358;50.272;19.026;2024-03-08T10:30:51;98741.56;;;8.52;44.36
34081;BME280;20358;50.272;19.026;2024-03-08T10:33:57;98736.78;;;8.40;44.81
34081;BME280;20358;50.272;19.026;2024-03-08T10:37:05;98736.00;;;8.36;45.12
34081;BME280;20358;50.272;19.026;2024-03-08T10:40:20;98728.19;;;8.36;45.03
34081;BME280;20358;50.272;19.026;2024-03-08T10:43:32;98720.38;;;8.36;45.18
34081;BME280;20358;50.272;19.026;2024-03-08T10:47:00;98718.03;;;8.29;44.97
34081;BME280;20358;50.272;19.026;2024-03-08T10:50:15;98717.97;;;8.30;45.11
34081;BME280;20358;50.272;19.026;2024-03-08T10:53:27;98711.78;;;8.34;45.42
34081;BME280;20358;50.272;19.026;2024-03-08T10:56:35;98716.13;;;8.34;45.11
34081;BME280;20358;50.272;19.026;2024-03-08T10:59:46;98707.19;;;8.41;44.92
34081;BME280;20358;50.272;19.026;2024-03-08T11:02:58;98706.09;;;8.48;44.95
34081;BME280;20358;50.272;19.026;2024-03-08T11:06:05;98704.28;;;8.50;44.81
34081;BME280;20358;50.272;19.026;2024-03-08T11:09:28;98691.94;;;8.55;45.07
34081;BME280;20358;50.272;19.026;2024-03-08T11:12:37;98694.19;;;8.64;44.97
34081;BME280;20358;50.272;19.026;2024-03-08T11:15:46;98691.47;;;8.68;44.97
34081;BME280;20358;50.272;19.026;2024-03-08T11:18:53;98686.97;;;8.72;44.59
34081;BME280;20358;50.272;19.026;2024-03-08T11:22:02;98686.84;;;8.75;44.86
34081;BME280;20358;50.272;19.026;2024-03-08T11:25:10;98686.63;;;8.81;44.41
34081;BME280;20358;50.272;19.026;2024-03-08T11:28:39;98681.44;;;8.81;44.45
34081;BME280;20358;50.272;19.026;2024-03-08T11:31:48;98679.50;;;8.86;44.28
34081;BME280;20358;50.272;19.026;2024-03-08T11:34:55;98675.00;;;8.90;44.20
34081;BME280;20358;50.272;19.026;2024-03-08T11:38:01;98669.53;;;8.97;44.09
34081;BME280;20358;50.272;19.026;2024-03-08T11:41:08;98611.44;;;8.70;44.18
34081;BME280;20358;50.272;19.026;2024-03-08T11:44:20;98664.63;;;9.11;44.07
34081;BME280;20358;50.272;19.026;2024-03-08T11:47:29;98657.34;;;9.19;43.89
34081;BME280;20358;50.272;19.026;2024-03-08T11:50:35;98649.31;;;9.25;43.72
34081;BME280;20358;50.272;19.026;2024-03-08T11:53:42;98646.56;;;9.28;43.71
34081;BME280;20358;50.272;19.026;2024-03-08T11:56:51;98644.88;;;9.27;43.83
34081;BME280;20358;50.272;19.026;2024-03-08T11:59:59;98633.56;;;9.27;43.66
34081;BME280;20358;50.272;19.026;2024-03-08T12:03:12;98647.06;;;9.38;43.70
34081;BME280;20358;50.272;19.026;2024-03-08T12:06:19;98636.50;;;9.41;43.35
34081;BME280;20358;50.272;19.026;2024-03-08T12:09:25;98643.28;;;9.45;43.38
34081;BME280;20358;50.272;19.026;2024-03-08T12:12:32;98642.06;;;9.54;43.53
34081;BME280;20358;50.272;19.026;2024-03-08T12:15:39;98620.81;;;9.63;43.42
34081;BME280;20358;50.272;19.026;2024-03-08T12:18:51;98625.66;;;9.72;42.83
34081;BME280;20358;50.272;19.026;2024-03-08T12:22:07;98626.38;;;9.75;42.92
34081;BME280;20358;50.272;19.026;2024-03-08T12:25:15;98620.16;;;9.78;42.71
34081;BME280;20358;50.272;19.026;2024-03-08T12:28:23;98621.88;;;9.79;42.46
34081;BME280;20358;50.272;19.026;2024-03-08T12:31:30;98614.56;;;9.87;42.37
34081;BME280;20358;50.272;19.026;2024-03-08T12:34:39;98612.50;;;9.95;42.34
34081;BME280;20358;50.272;19.026;2024-03-08T12:37:50;98603.47;;;10.02;42.00
34081;BME280;20358;50.272;19.026;2024-03-08T12:40:59;98603.34;;;10.05;42.05
34081;BME280;20358;50.272;19.026;2024-03-08T12:44:06;98596.16;;;10.10;42.16
34081;BME280;20358;50.272;19.026;2024-03-08T12:47:13;98589.13;;;10.12;41.98
34081;BME280;20358;50.272;19.026;2024-03-08T12:50:23;98594.31;;;10.14;41.97
34081;BME280;20358;50.272;19.026;2024-03-08T12:53:30;98592.38;;;10.17;41.89
34081;BME280;20358;50.272;19.026;2024-03-08T12:56:37;98592.03;;;10.25;41.88
34081;BME280;20358;50.272;19.026;2024-03-08T12:59:43;98582.97;;;10.33;41.96
34081;BME280;20358;50.272;19.026;2024-03-08T13:02:50;98581.63;;;10.43;41.37
34081;BME280;20358;50.272;19.026;2024-03-08T13:05:59;98580.47;;;10.50;41.47
34081;BME280;20358;50.272;19.026;2024-03-08T13:09:05;98578.50;;;10.55;41.13
34081;BME280;20358;50.272;19.026;2024-03-08T13:12:11;98571.28;;;10.61;41.36
34081;BME280;20358;50.272;19.026;2024-03-08T13:15:18;98574.44;;;10.67;41.17
34081;BME280;20358;50.272;19.026;2024-03-08T13:18:25;98565.69;;;10.68;40.89
34081;BME280;20358;50.272;19.026;2024-03-08T13:21:34;98572.41;;;10.74;41.06
34081;BME280;20358;50.272;19.026;2024-03-08T13:24:40;98565.03;;;10.82;41.09
34081;BME280;20358;50.272;19.026;2024-03-08T13:27:48;98559.63;;;10.86;40.76
34081;BME280;20358;50.272;19.026;2024-03-08T13:30:56;98561.09;;;10.92;40.93
34081;BME280;20358;50.272;19.026;2024-03-08T13:34:06;98549.47;;;10.97;40.85
34081;BME280;20358;50.272;19.026;2024-03-08T13:37:16;98556.97;;;11.05;40.80
34081;BME280;20358;50.272;19.026;2024-03-08T13:40:23;98545.53;;;11.07;40.66
34081;BME280;20358;50.272;19.026;2024-03-08T13:43:29;98543.44;;;11.14;40.80
34081;BME280;20358;50.272;19.026;2024-03-08T13:46:38;98533.75;;;11.16;40.43
34081;BME280;20358;50.272;19.026;2024-03-08T13:49:44;98521.59;;;11.15;40.41
34081;BME280;20358;50.272;19.026;2024-03-08T13:52:56;98530.53;;;11.28;40.33
34081;BME280;20358;50.272;19.026;2024-03-08T13:56:03;98533.16;;;11.28;40.02
34081;BME280;20358;50.272;19.026;2024-03-08T13:59:14;98520.22;;;11.25;39.93
34081;BME280;20358;50.272;19.026;2024-03-08T14:02:21;98529.00;;;11.24;39.93
34081;BME280;20358;50.272;19.026;2024-03-08T14:05:31;98527.94;;;11.28;40.24
34081;BME280;20358;50.272;19.026;2024-03-08T14:08:40;98513.75;;;11.32;40.47
34081;BME280;20358;50.272;19.026;2024-03-08T14:11:47;98513.47;;;11.38;40.43
34081;BME280;20358;50.272;19.026;2024-03-08T14:14:56;98510.38;;;11.47;40.39
34081;BME280;20358;50.272;19.026;2024-03-08T14:18:04;98517.78;;;11.56;40.12
34081;BME280;20358;50.272;19.026;2024-03-08T14:21:11;98513.91;;;11.63;40.03
34081;BME280;20358;50.272;19.026;2024-03-08T14:24:20;98515.31;;;11.70;40.16
34081;BME280;20358;50.272;19.026;2024-03-08T14:27:26;98515.94;;;11.75;39.84
34081;BME280;20358;50.272;19.026;2024-03-08T14:30:33;98518.69;;;11.72;39.88
34081;BME280;20358;50.272;19.026;2024-03-08T14:33:41;98512.50;;;11.75;39.99
34081;BME280;20358;50.272;19.026;2024-03-08T14:36:52;98514.16;;;11.76;39.73
34081;BME280;20358;50.272;19.026;2024-03-08T14:40:00;98509.78;;;11.76;40.23
34081;BME280;20358;50.272;19.026;2024-03-08T14:43:08;98506.06;;;11.80;40.25
34081;BME280;20358;50.272;19.026;2024-03-08T14:46:14;98514.63;;;11.84;40.31
34081;BME280;20358;50.272;19.026;2024-03-08T14:49:23;98510.38;;;11.81;40.00
34081;BME280;20358;50.272;19.026;2024-03-08T14:52:31;98499.75;;;11.85;39.90
34081;BME280;20358;50.272;19.026;2024-03-08T14:55:40;98501.69;;;11.81;40.30
34081;BME280;20358;50.272;19.026;2024-03-08T14:58:49;98506.06;;;11.80;40.42
34081;BME280;20358;50.272;19.026;2024-03-08T15:01:56;98492.69;;;11.69;40.67
34081;BME280;20358;50.272;19.026;2024-03-08T15:05:04;98496.22;;;11.68;41.09
34081;BME280;20358;50.272;19.026;2024-03-08T15:08:14;98495.31;;;11.69;41.14
34081;BME280;20358;50.272;19.026;2024-03-08T15:11:29;98500.56;;;11.69;41.30
34081;BME280;20358;50.272;19.026;2024-03-08T15:14:40;98488.19;;;11.54;41.46
34081;BME280;20358;50.272;19.026;2024-03-08T15:17:46;98502.06;;;11.56;41.46
34081;BME280;20358;50.272;19.026;2024-03-08T15:20:54;98494.28;;;11.55;41.67
34081;BME280;20358;50.272;19.026;2024-03-08T15:24:00;98494.22;;;11.56;41.70
34081;BME280;20358;50.272;19.026;2024-03-08T15:27:10;98489.88;;;11.55;41.55
34081;BME280;20358;50.272;19.026;2024-03-08T15:30:15;98489.13;;;11.53;41.91
34081;BME280;20358;50.272;19.026;2024-03-08T15:33:25;98491.13;;;11.48;41.67
34081;BME280;20358;50.272;19.026;2024-03-08T15:36:33;98488.81;;;11.42;41.77
34081;BME280;20358;50.272;19.026;2024-03-08T15:39:40;98484.06;;;11.33;42.09
34081;BME280;20358;50.272;19.026;2024-03-08T15:42:48;98447.25;;;11.02;42.47
34081;BME280;20358;50.272;19.026;2024-03-08T15:46:00;98487.88;;;11.26;42.55
34081;BME280;20358;50.272;19.026;2024-03-08T15:49:06;98484.50;;;11.24;42.34
34081;BME280;20358;50.272;19.026;2024-03-08T15:52:14;98494.34;;;11.19;42.43
34081;BME280;20358;50.272;19.026;2024-03-08T15:55:21;98490.97;;;11.17;42.73
34081;BME280;20358;50.272;19.026;2024-03-08T15:58:33;98488.63;;;11.11;42.74
34081;BME280;20358;50.272;19.026;2024-03-08T16:01:41;98488.78;;;11.08;42.91
34081;BME280;20358;50.272;19.026;2024-03-08T16:04:52;98483.88;;;11.02;43.04
34081;BME280;20358;50.272;19.026;2024-03-08T16:07:58;98489.69;;;10.90;43.26
34081;BME280;20358;50.272;19.026;2024-03-08T16:11:05;98481.81;;;10.73;43.68
34081;BME280;20358;50.272;19.026;2024-03-08T16:14:15;98487.56;;;10.79;43.75
34081;BME280;20358;50.272;19.026;2024-03-08T16:17:23;98488.75;;;10.74;43.96
34081;BME280;20358;50.272;19.026;2024-03-08T16:20:29;98490.72;;;10.69;43.92
34081;BME280;20358;50.272;19.026;2024-03-08T16:23:37;98489.44;;;10.58;43.92
34081;BME280;20358;50.272;19.026;2024-03-08T16:26:42;98487.28;;;10.49;44.45
34081;BME280;20358;50.272;19.026;2024-03-08T16:29:52;98490.94;;;10.45;44.45
34081;BME280;20358;50.272;19.026;2024-03-08T16:32:58;98493.84;;;10.39;44.60